Time;durP1;ratioP1;P1;durP2;ratioP2;P2;SDS_P1;SDS_P2;PMS_P1;PMS_P2;Temp;Humidity;BMP_temperature;BMP_pressure;BME280_temperature;BME280_humidity;BME280_pressure;Samples;Min_cycle;Max_cycle;Signal;HPM_P1;HPM_P2
2021/10/04 00:01:49;;;;;;;8.90;6.72;;;;;;;17.31;61.40;102163.88;5016512;28;103898;-52
2021/10/04 00:04:15;;;;;;;9.57;5.97;;;;;;;17.31;61.57;102158.38;5014554;27;102346;-52
2021/10/04 00:07:05;;;;;;;8.45;6.18;;;;;;;17.32;61.39;102159.19;5014984;27;102203;-52
2021/10/04 00:09:39;;;;;;;7.30;5.50;;;;;;;17.31;61.81;102163.88;5008846;28;102390;-52
2021/10/04 00:12:07;;;;;;;7.20;5.60;;;;;;;17.32;61.47;102165.50;5000969;28;102980;-52
2021/10/04 00:14:33;;;;;;;7.40;5.88;;;;;;;17.32;61.63;102165.50;5014427;27;101929;-53
2021/10/04 00:17:00;;;;;;;6.63;5.45;;;;;;;17.31;61.65;102161.13;5014038;28;102202;-52
2021/10/04 00:19:27;;;;;;;7.65;5.90;;;;;;;17.32;61.05;102164.69;5012385;28;102263;-52
2021/10/04 00:21:54;;;;;;;8.50;6.35;;;;;;;17.30;61.38;102159.44;5006408;28;103881;-52
2021/10/04 00:24:22;;;;;;;7.63;5.80;;;;;;;17.31;61.17;102161.13;5009260;28;102266;-53
2021/10/04 00:26:49;;;;;;;7.25;5.75;;;;;;;17.31;61.19;102158.38;5014531;28;102375;-53
2021/10/04 00:29:17;;;;;;;6.30;5.30;;;;;;;17.31;61.39;102158.38;5010894;28;102553;-53
2021/10/04 00:31:43;;;;;;;6.90;5.57;;;;;;;17.31;61.14;102158.38;5011187;28;104045;-52
2021/10/04 00:34:11;;;;;;;7.03;5.70;;;;;;;17.30;61.21;102153.94;5012993;28;102202;-52
2021/10/04 00:36:37;;;;;;;7.85;6.13;;;;;;;17.31;61.22;102158.38;5013208;28;102598;-52
2021/10/04 00:39:04;;;;;;;7.53;5.75;;;;;;;17.32;61.71;102159.19;5013610;28;102467;-53
2021/10/04 00:41:32;;;;;;;7.10;5.72;;;;;;;17.31;61.26;102163.88;5013123;27;103865;-52
2021/10/04 00:43:58;;;;;;;8.07;5.50;;;;;;;17.32;61.75;102161.94;5010328;28;102296;-52
2021/10/04 00:46:26;;;;;;;6.88;5.57;;;;;;;17.30;61.80;102162.19;5009531;28;102396;-52
2021/10/04 00:48:53;;;;;;;6.80;5.38;;;;;;;17.30;61.73;102162.19;5010558;28;102623;-52
2021/10/04 00:51:20;;;;;;;7.93;5.82;;;;;;;17.32;61.09;102159.19;5010350;28;104081;-52
2021/10/04 00:53:47;;;;;;;6.88;5.70;;;;;;;17.30;61.49;102157.53;5009067;28;102696;-52
2021/10/04 00:56:14;;;;;;;6.70;6.00;;;;;;;17.32;61.49;102159.19;5000699;28;102369;-52
2021/10/04 00:58:42;;;;;;;6.93;5.40;;;;;;;17.31;61.79;102166.63;5006254;27;102235;-53
2021/10/04 01:01:08;;;;;;;6.97;5.75;;;;;;;17.31;61.49;102158.38;5010288;28;104065;-52
2021/10/04 01:03:35;;;;;;;7.50;5.57;;;;;;;17.30;61.71;102151.19;5013265;28;102209;-52
2021/10/04 01:06:02;;;;;;;7.43;5.32;;;;;;;17.30;61.13;102160.28;5005786;28;102222;-53
2021/10/04 01:08:29;;;;;;;5.63;4.82;;;;;;;17.31;61.61;102155.63;5003667;28;103194;-52
2021/10/04 01:10:56;;;;;;;7.22;5.28;;;;;;;17.31;61.22;102152.88;5010876;28;103733;-52
2021/10/04 01:13:23;;;;;;;5.47;4.65;;;;;;;17.31;61.23;102152.88;5006037;28;102390;-52
2021/10/04 01:15:51;;;;;;;6.30;5.50;;;;;;;17.30;61.31;102145.69;5008291;28;102371;-52
2021/10/04 01:18:17;;;;;;;6.20;5.43;;;;;;;17.30;61.67;102156.69;5005468;28;102161;-52
2021/10/04 01:20:45;;;;;;;8.00;5.53;;;;;;;17.31;61.68;102155.63;5011906;28;103875;-52
2021/10/04 01:23:11;;;;;;;8.10;5.28;;;;;;;17.30;61.71;102148.44;5011847;28;102299;-52
2021/10/04 01:25:39;;;;;;;5.97;4.90;;;;;;;17.29;61.25;102150.38;5007725;27;102139;-52
2021/10/04 01:28:06;;;;;;;5.88;5.28;;;;;;;17.30;61.19;102148.44;5005635;28;102180;-52
2021/10/04 01:30:33;;;;;;;6.75;5.35;;;;;;;17.30;61.50;102149.25;5001743;28;104211;-52
2021/10/04 01:33:00;;;;;;;5.75;4.55;;;;;;;17.29;61.51;102158.63;5002529;28;102168;-52
2021/10/04 01:35:27;;;;;;;5.60;5.07;;;;;;;17.30;61.87;102145.69;4996016;28;102349;-53
2021/10/04 01:37:55;;;;;;;6.70;5.32;;;;;;;17.30;61.58;102151.19;5006037;28;102341;-52
2021/10/04 01:40:22;;;;;;;6.50;5.25;;;;;;;17.29;61.73;102157.81;4997840;28;104026;-52
2021/10/04 01:42:48;;;;;;;6.78;5.50;;;;;;;17.29;61.82;102155.88;5001643;27;102469;-52
2021/10/04 01:45:17;;;;;;;6.68;5.03;;;;;;;17.29;61.50;102149.56;5007310;28;102409;-52
2021/10/04 01:47:44;;;;;;;6.28;5.40;;;;;;;17.29;61.66;102164.13;5005904;28;102281;-52
2021/10/04 01:50:12;;;;;;;7.22;5.53;;;;;;;17.29;61.42;102157.81;5002984;28;103880;-52
2021/10/04 01:52:39;;;;;;;6.43;5.05;;;;;;;17.28;61.36;102164.44;5007264;28;102079;-52
2021/10/04 01:55:09;;;;;;;5.68;4.93;;;;;;;17.29;61.52;102168.81;5001934;28;102394;-52
2021/10/04 01:57:36;;;;;;;6.82;5.45;;;;;;;17.28;61.64;102158.94;5006849;28;102162;-52
2021/10/04 02:00:05;;;;;;;5.93;5.32;;;;;;;17.28;61.99;102159.75;4997365;28;104659;-53
2021/10/04 02:02:32;;;;;;;6.32;4.80;;;;;;;17.29;61.47;102160.56;5011000;28;102339;-52
2021/10/04 02:04:58;;;;;;;5.57;4.85;;;;;;;17.28;61.97;102158.94;5012552;28;102111;-53
2021/10/04 02:07:25;;;;;;;6.32;5.00;;;;;;;17.28;61.25;102159.75;5010700;28;102166;-52
2021/10/04 02:09:51;;;;;;;5.03;4.50;;;;;;;17.28;61.61;102157.00;5008869;28;103911;-52
2021/10/04 02:12:19;;;;;;;5.25;4.57;;;;;;;17.28;61.40;102151.50;5006389;28;102691;-52
2021/10/04 02:14:46;;;;;;;6.07;4.70;;;;;;;17.28;61.33;102159.75;5006146;28;102434;-52
2021/10/04 02:17:12;;;;;;;5.65;4.80;;;;;;;17.28;61.59;102157.00;5009868;28;102335;-52
2021/10/04 02:19:39;;;;;;;6.20;4.88;;;;;;;17.29;62.00;102149.56;5006578;28;103923;-52
2021/10/04 02:22:06;;;;;;;5.50;4.82;;;;;;;17.28;61.38;102153.41;5009064;28;102462;-52
2021/10/04 02:24:33;;;;;;;9.05;4.82;;;;;;;17.28;62.11;102150.66;5004761;28;102316;-52
2021/10/04 02:27:00;;;;;;;5.03;4.53;;;;;;;17.28;61.68;102150.66;5011895;28;102474;-52
2021/10/04 02:29:28;;;;;;;7.20;5.35;;;;;;;17.28;61.42;102165.25;5008500;28;103919;-52
2021/10/04 02:31:54;;;;;;;5.40;4.50;;;;;;;17.28;62.03;102169.94;5007980;28;102448;-52
2021/10/04 02:34:21;;;;;;;5.68;4.75;;;;;;;17.27;61.59;102169.13;5000575;28;102120;-52
2021/10/04 02:36:47;;;;;;;5.35;4.85;;;;;;;17.28;61.71;102175.44;5002206;28;102698;-52
2021/10/04 02:39:14;;;;;;;5.53;4.82;;;;;;;17.28;61.55;102169.94;5007346;28;103742;-52
2021/10/04 02:41:41;;;;;;;7.00;4.75;;;;;;;17.28;61.47;102175.44;5012168;28;102518;-52
2021/10/04 02:44:07;;;;;;;5.35;4.75;;;;;;;17.27;61.74;102177.38;5000275;28;103611;-52
2021/10/04 02:46:35;;;;;;;6.32;4.38;;;;;;;17.27;61.58;102182.88;5016997;28;102285;-52
2021/10/04 02:49:02;;;;;;;5.25;4.75;;;;;;;17.27;61.72;102182.03;5013955;28;103723;-52
2021/10/04 02:51:29;;;;;;;5.70;4.90;;;;;;;17.27;61.96;102182.88;5015486;28;102105;-52
2021/10/04 02:53:55;;;;;;;7.57;4.70;;;;;;;17.27;61.81;102180.13;5014831;28;102425;-52
2021/10/04 02:56:22;;;;;;;6.13;4.60;;;;;;;17.27;62.03;102176.50;5012750;28;102177;-53
2021/10/04 02:58:48;;;;;;;5.78;4.95;;;;;;;17.27;61.92;102176.50;5005921;28;104040;-52
2021/10/04 03:01:15;;;;;;;5.07;4.22;;;;;;;17.27;62.05;102179.28;5009369;28;102244;-53
2021/10/04 03:03:42;;;;;;;4.90;4.20;;;;;;;17.26;61.53;102183.13;5009172;28;102560;-52
2021/10/04 03:06:09;;;;;;;6.10;4.80;;;;;;;17.27;61.79;102182.03;5016146;28;102221;-52
2021/10/04 03:08:36;;;;;;;5.43;4.30;;;;;;;17.26;62.13;102189.44;5013360;28;103933;-52
2021/10/04 03:11:02;;;;;;;6.93;4.72;;;;;;;17.26;62.03;102183.94;5015760;28;102438;-52
2021/10/04 03:13:29;;;;;;;5.53;4.53;;;;;;;17.26;61.54;102188.63;5016238;28;102082;-52
2021/10/04 03:15:55;;;;;;;4.47;4.07;;;;;;;17.27;62.10;102190.28;5014020;27;102230;-53
2021/10/04 03:18:21;;;;;;;6.55;5.22;;;;;;;17.26;61.74;102203.22;5012694;28;103996;-53
2021/10/04 03:20:50;;;;;;;5.90;4.60;;;;;;;17.26;61.63;102194.13;5011837;28;102571;-52
2021/10/04 03:23:16;;;;;;;5.13;4.13;;;;;;;17.26;61.47;102199.63;5002367;28;103558;-53
2021/10/04 03:25:44;;;;;;;5.68;4.50;;;;;;;17.26;62.23;102205.16;5009659;28;102158;-52
2021/10/04 03:28:11;;;;;;;5.78;4.55;;;;;;;17.25;61.61;102198.81;5004876;28;104071;-52
2021/10/04 03:30:37;;;;;;;6.07;4.82;;;;;;;17.26;62.06;102191.38;5009075;28;102645;-52
2021/10/04 03:33:04;;;;;;;5.57;4.80;;;;;;;17.26;62.11;102196.88;4998377;28;102299;-52
2021/10/04 03:35:31;;;;;;;5.38;4.53;;;;;;;17.25;61.75;102190.56;5006368;28;102200;-52
2021/10/04 03:38:00;;;;;;;5.53;4.43;;;;;;;17.26;61.85;102183.13;5013028;28;103948;-52
2021/10/04 03:40:26;;;;;;;5.10;4.40;;;;;;;17.26;62.52;102183.13;5014068;28;102650;-52
2021/10/04 03:42:53;;;;;;;5.88;4.50;;;;;;;17.26;61.79;102188.63;5012664;27;102203;-52
2021/10/04 03:45:19;;;;;;;4.45;4.00;;;;;;;17.26;62.11;102191.38;5002078;28;103743;-52
2021/10/04 03:47:46;;;;;;;5.03;4.10;;;;;;;17.26;61.96;102185.88;5000510;28;103942;-52
2021/10/04 03:50:14;;;;;;;4.93;4.30;;;;;;;17.25;62.21;102187.00;5007309;28;102580;-52
2021/10/04 03:52:42;;;;;;;5.68;4.57;;;;;;;17.25;61.67;102198.00;5006765;28;102386;-52
2021/10/04 03:55:12;;;;;;;4.38;3.97;;;;;;;17.25;61.67;102192.50;5015169;28;102544;-52
2021/10/04 03:57:40;;;;;;;5.43;4.55;;;;;;;17.23;61.66;102189.19;5008071;28;104102;-52
2021/10/04 04:00:10;;;;;;;5.22;4.05;;;;;;;17.24;61.65;102197.19;5010763;28;102461;-52
2021/10/04 04:02:37;;;;;;;4.47;3.92;;;;;;;17.25;62.26;102198.00;5010542;28;105876;-52
2021/10/04 04:05:05;;;;;;;5.00;4.03;;;;;;;17.24;62.25;102202.69;5001218;28;102547;-52
2021/10/04 04:07:32;;;;;;;6.55;4.68;;;;;;;17.24;62.24;102204.63;5005554;28;103977;-52
2021/10/04 04:09:59;;;;;;;4.78;4.18;;;;;;;17.25;61.57;102214.50;5002448;28;102704;-52
2021/10/04 04:12:27;;;;;;;5.82;4.38;;;;;;;17.24;61.74;102213.69;5005542;28;102530;-52
2021/10/04 04:14:53;;;;;;;4.15;3.75;;;;;;;17.24;61.61;102218.38;5003111;28;102446;-52
2021/10/04 04:17:20;;;;;;;5.07;4.22;;;;;;;17.24;62.20;102218.38;5011554;28;103836;-57
2021/10/04 04:19:47;;;;;;;4.90;4.40;;;;;;;17.24;61.61;102212.88;5010074;28;102100;-52
2021/10/04 04:22:13;;;;;;;4.97;4.25;;;;;;;17.24;62.16;102226.63;5026751;28;101874;-53
2021/10/04 04:24:39;;;;;;;5.95;4.53;;;;;;;17.24;61.99;102226.63;5029781;27;102738;-52
2021/10/04 04:27:08;;;;;;;5.00;4.40;;;;;;;17.23;61.77;102228.53;5027545;28;103133;-52
2021/10/04 04:29:38;;;;;;;5.50;4.28;;;;;;;17.23;61.98;102227.72;5018724;28;102157;-52
2021/10/04 04:32:05;;;;;;;;;;;;;;;17.24;62.20;102230.19;5009881;28;102338;-52
2021/10/04 04:34:31;;;;;;;5.75;4.55;;;;;;;17.23;62.00;102234.03;5009942;28;102159;-52
2021/10/04 04:36:58;;;;;;;5.70;4.60;;;;;;;17.24;61.77;102234.88;5009551;28;102991;-52
2021/10/04 04:39:24;;;;;;;4.97;4.38;;;;;;;17.22;61.79;102226.88;5009203;28;102538;-52
2021/10/04 04:41:51;;;;;;;4.95;4.30;;;;;;;17.23;62.37;102228.53;5010723;28;102256;-52
2021/10/04 04:44:17;;;;;;;4.15;3.75;;;;;;;17.22;61.97;102237.91;5009799;28;102260;-52
2021/10/04 04:46:45;;;;;;;5.05;4.53;;;;;;;17.23;61.94;102233.22;5003653;28;103677;-52
2021/10/04 04:49:12;;;;;;;4.70;4.15;;;;;;;17.23;61.86;102235.97;5009220;28;102241;-52
2021/10/04 04:51:39;;;;;;;5.55;4.63;;;;;;;17.23;62.31;102244.22;5010565;28;102375;-52
2021/10/04 04:54:05;;;;;;;5.57;4.50;;;;;;;17.23;62.29;102238.72;5006496;28;102202;-52
2021/10/04 04:56:31;;;;;;;4.32;3.78;;;;;;;17.22;62.34;102240.66;5009379;28;103939;-52
2021/10/04 04:58:58;;;;;;;5.28;4.20;;;;;;;17.24;62.22;102248.63;5003071;28;102552;-52
2021/10/04 05:01:24;;;;;;;5.18;4.00;;;;;;;17.24;62.54;102248.63;5008688;28;104189;-52
2021/10/04 05:03:52;;;;;;;5.15;4.55;;;;;;;17.23;61.92;102244.22;5009548;28;102199;-52
2021/10/04 05:06:19;;;;;;;5.55;4.10;;;;;;;17.22;62.31;102237.91;5013681;28;103708;-52
2021/10/04 05:08:45;;;;;;;5.30;3.78;;;;;;;17.23;62.47;102246.97;5010726;28;102018;-52
2021/10/04 05:11:11;;;;;;;5.03;4.07;;;;;;;17.24;62.29;102245.88;5002660;28;102222;-52
2021/10/04 05:13:38;;;;;;;4.60;3.65;;;;;;;17.23;62.33;102244.22;5011816;28;102485;-52
2021/10/04 05:16:05;;;;;;;4.85;3.95;;;;;;;17.24;62.30;102248.63;5012935;28;103880;-52
2021/10/04 05:18:32;;;;;;;6.72;4.53;;;;;;;17.24;62.45;102254.13;5008220;28;102030;-52
2021/10/04 05:20:59;;;;;;;6.07;4.63;;;;;;;17.25;62.04;102253.03;5003040;28;102417;-52
2021/10/04 05:23:26;;;;;;;4.90;4.40;;;;;;;17.24;62.71;102256.88;5001165;28;102519;-53
2021/10/04 05:25:52;;;;;;;4.88;4.20;;;;;;;17.26;62.12;102260.16;5011669;27;104012;-52
2021/10/04 05:28:19;;;;;;;5.43;4.53;;;;;;;17.24;62.07;102251.38;5008809;28;102636;-52
2021/10/04 05:30:46;;;;;;;5.35;3.97;;;;;;;17.26;62.65;102265.69;5009369;27;102625;-52
2021/10/04 05:33:12;;;;;;;4.55;4.03;;;;;;;17.26;62.65;102268.44;5004553;28;102336;-52
2021/10/04 05:35:39;;;;;;;4.47;3.90;;;;;;;17.25;62.32;102267.59;5002038;28;103968;-52
2021/10/04 05:38:07;;;;;;;5.40;4.18;;;;;;;17.25;62.37;102264.03;5001329;28;102128;-52
2021/10/04 05:40:34;;;;;;;6.50;4.10;;;;;;;17.25;62.62;102264.03;5005573;28;102036;-52
2021/10/04 05:43:00;;;;;;;6.72;4.32;;;;;;;17.25;62.22;102270.34;5012437;28;102192;-52
2021/10/04 05:45:27;;;;;;;4.53;4.07;;;;;;;17.26;62.35;102268.44;5001023;28;103930;-52
2021/10/04 05:47:53;;;;;;;5.15;4.05;;;;;;;17.25;62.34;102264.03;5008084;28;102210;-52
2021/10/04 05:50:20;;;;;;;4.60;3.95;;;;;;;17.26;62.66;102260.16;4998632;28;102353;-52
2021/10/04 05:52:46;;;;;;;5.07;4.35;;;;;;;17.26;62.60;102265.69;5006570;28;102513;-52
2021/10/04 05:55:14;;;;;;;4.65;4.10;;;;;;;17.26;62.21;102271.19;5001732;28;103918;-52
2021/10/04 05:57:42;;;;;;;4.20;3.67;;;;;;;17.25;62.56;102264.84;5007228;28;102448;-52
2021/10/04 06:00:10;;;;;;;5.53;4.38;;;;;;;17.25;62.17;102266.78;5004736;28;102395;-52
2021/10/04 06:02:37;;;;;;;5.77;4.47;;;;;;;17.26;62.71;102271.19;5009733;28;103820;-53
2021/10/04 06:05:04;;;;;;;7.53;4.50;;;;;;;17.26;62.25;102268.44;5005102;28;104071;-52
2021/10/04 06:07:34;;;;;;;6.45;4.40;;;;;;;17.25;62.18;102264.84;4997010;27;102414;-52
2021/10/04 06:10:02;;;;;;;5.47;4.60;;;;;;;17.26;62.76;102268.44;5006505;28;103868;-52
2021/10/04 06:12:30;;;;;;;6.50;4.85;;;;;;;17.26;62.89;102260.16;5002229;28;102763;-52
2021/10/04 06:14:58;;;;;;;6.80;4.78;;;;;;;17.26;62.86;102265.69;5002516;28;104120;-52
2021/10/04 06:17:26;;;;;;;6.05;5.30;;;;;;;17.26;62.24;102268.44;5001824;28;106048;-52
2021/10/04 06:19:53;;;;;;;6.20;4.93;;;;;;;17.25;62.85;102267.59;4994465;28;102706;-53
2021/10/04 06:22:20;;;;;;;7.28;5.20;;;;;;;17.26;62.48;102274.75;5007528;28;103289;-53
2021/10/04 06:24:47;;;;;;;6.38;4.82;;;;;;;17.26;62.49;102276.69;5006316;27;103880;-54
2021/10/04 06:27:13;;;;;;;6.78;4.75;;;;;;;17.26;62.60;102276.69;5006627;27;102138;-52
2021/10/04 06:29:42;;;;;;;5.70;4.85;;;;;;;17.26;62.33;102276.69;5010515;28;102747;-52
2021/10/04 06:32:09;;;;;;;6.60;5.22;;;;;;;17.26;62.97;102277.50;5010786;28;102580;-52
2021/10/04 06:34:35;;;;;;;7.00;5.07;;;;;;;17.26;62.24;102282.19;5001979;28;104340;-52
2021/10/04 06:37:02;;;;;;;7.55;5.50;;;;;;;17.27;62.83;102295.69;5008569;28;102305;-52
2021/10/04 06:39:29;;;;;;;8.57;5.22;;;;;;;17.27;62.29;102283.81;5007525;27;103831;-53
2021/10/04 06:41:55;;;;;;;8.45;5.43;;;;;;;17.27;62.61;102278.31;5006375;28;102523;-52
2021/10/04 06:44:22;;;;;;;5.85;4.95;;;;;;;17.27;62.23;102290.19;5002990;28;103805;-52
2021/10/04 06:46:50;;;;;;;5.68;4.78;;;;;;;17.27;62.57;102289.31;5013863;28;102163;-53
2021/10/04 06:49:17;;;;;;;7.43;5.30;;;;;;;17.27;62.21;102283.81;5001775;27;102172;-52
2021/10/04 06:51:45;;;;;;;6.87;5.30;;;;;;;17.28;62.34;102285.50;4980400;28;102394;-52
2021/10/04 06:54:11;;;;;;;7.35;5.32;;;;;;;17.28;62.07;102296.50;4989762;28;103902;-52
2021/10/04 06:56:38;;;;;;;8.65;5.97;;;;;;;17.28;62.85;102300.06;4980323;28;102820;-52
2021/10/04 06:59:06;;;;;;;10.38;5.53;;;;;;;17.28;62.54;102293.75;4988499;28;102283;-52
2021/10/04 07:01:35;;;;;;;8.75;5.97;;;;;;;17.28;62.17;102288.25;4995728;28;102539;-52
2021/10/04 07:04:04;;;;;;;6.65;5.68;;;;;;;17.28;62.69;102285.50;4989485;28;104053;-52
2021/10/04 07:06:30;;;;;;;7.32;5.57;;;;;;;17.28;62.42;102291.00;4982006;28;102321;-52
2021/10/04 07:08:57;;;;;;;8.93;6.50;;;;;;;17.28;62.52;102286.31;4992809;28;102176;-52
2021/10/04 07:11:24;;;;;;;9.45;6.88;;;;;;;17.28;62.49;102285.50;4996515;28;102191;-52
2021/10/04 07:13:51;;;;;;;7.32;6.35;;;;;;;17.29;62.06;102292.63;4993342;28;104111;-52
2021/10/04 07:16:17;;;;;;;7.95;5.95;;;;;;;17.27;62.20;102284.69;4994895;28;103525;-52
2021/10/04 07:18:44;;;;;;;9.15;6.82;;;;;;;17.28;62.13;102288.25;4994986;28;102257;-52
2021/10/04 07:21:12;;;;;;;8.10;6.20;;;;;;;17.28;62.36;102291.00;4992870;28;102236;-52
2021/10/04 07:23:38;;;;;;;8.67;6.47;;;;;;;17.29;62.38;102287.13;4991666;28;103789;-52
2021/10/04 07:26:06;;;;;;;7.70;6.40;;;;;;;17.29;62.37;102292.63;4993140;28;102085;-52
2021/10/04 07:28:33;;;;;;;9.38;6.90;;;;;;;17.30;62.30;102294.28;4996054;28;102278;-52
2021/10/04 07:31:00;;;;;;;7.97;5.93;;;;;;;17.29;62.44;102292.63;4995234;28;102157;-52
2021/10/04 07:33:26;;;;;;;9.77;6.68;;;;;;;17.29;62.49;102293.47;4987315;28;104111;-52
2021/10/04 07:35:55;;;;;;;9.48;6.45;;;;;;;17.30;62.22;102299.78;4991165;28;102168;-52
2021/10/04 07:38:24;;;;;;;11.73;6.03;;;;;;;17.31;62.33;102298.69;4984902;28;102613;-52
2021/10/04 07:40:51;;;;;;;8.88;5.97;;;;;;;17.31;62.40;102293.19;4987264;28;103876;-52
2021/10/04 07:43:18;;;;;;;8.52;6.30;;;;;;;17.32;61.99;102291.25;4992192;28;103999;-52
2021/10/04 07:45:44;;;;;;;8.85;6.28;;;;;;;17.33;61.84;102296.47;4989424;28;102359;-52
2021/10/04 07:48:12;;;;;;;10.73;6.75;;;;;;;17.33;62.12;102293.72;4988042;28;102169;-52
2021/10/04 07:50:38;;;;;;;7.00;5.78;;;;;;;17.35;62.09;102297.03;4990617;28;102482;-52
2021/10/04 07:53:05;;;;;;;8.40;6.15;;;;;;;17.35;62.23;102294.28;4989452;28;103953;-52
2021/10/04 07:55:33;;;;;;;9.77;6.00;;;;;;;17.36;62.24;102298.69;4991743;28;102210;-52
2021/10/04 07:57:59;;;;;;;9.45;5.78;;;;;;;17.37;61.75;102299.50;4990538;28;102285;-52
2021/10/04 08:00:26;;;;;;;7.13;5.25;;;;;;;17.37;61.95;102297.56;4988688;28;102688;-52
2021/10/04 08:02:53;;;;;;;7.28;5.93;;;;;;;17.36;61.70;102295.94;4980686;28;103678;-52
2021/10/04 08:05:19;;;;;;;7.88;6.03;;;;;;;17.38;62.37;102302.00;4989140;28;102366;-52
2021/10/04 08:07:46;;;;;;;11.75;5.88;;;;;;;17.38;61.89;102302.00;4989438;28;102481;-52
2021/10/04 08:10:12;;;;;;;7.28;5.32;;;;;;;17.39;62.20;102300.88;4993330;28;102373;-52
2021/10/04 08:12:40;;;;;;;9.32;5.57;;;;;;;17.40;61.86;102297.00;4987718;28;103552;-52
2021/10/04 08:15:08;;;;;;;6.82;5.53;;;;;;;17.40;62.00;102293.44;4984301;28;102764;-52
2021/10/04 08:17:36;;;;;;;9.98;6.03;;;;;;;17.42;61.54;102299.50;4995110;28;102082;-52
2021/10/04 08:20:04;;;;;;;8.60;5.88;;;;;;;17.42;61.68;102297.56;4995053;28;102606;-52
2021/10/04 08:22:32;;;;;;;8.48;5.07;;;;;;;17.43;61.83;102293.72;4993795;28;104937;-52
2021/10/04 08:24:58;;;;;;;10.10;6.03;;;;;;;17.42;62.15;102292.06;4982203;28;102102;-52
2021/10/04 08:27:25;;;;;;;6.38;5.57;;;;;;;17.41;61.94;102282.13;4986248;28;103628;-52
2021/10/04 08:29:53;;;;;;;12.02;5.57;;;;;;;17.43;61.78;102285.44;4991484;28;102513;-52
2021/10/04 08:32:20;;;;;;;6.85;5.47;;;;;;;17.42;61.36;102275.56;4987714;28;103895;-52
2021/10/04 08:34:46;;;;;;;6.90;5.22;;;;;;;17.43;61.75;102282.69;4978791;28;102460;-53
2021/10/04 08:37:13;;;;;;;6.65;5.50;;;;;;;17.43;61.69;102282.69;4986165;28;102303;-52
2021/10/04 08:39:40;;;;;;;6.70;4.90;;;;;;;17.42;61.82;102278.31;4993664;28;102402;-52
2021/10/04 08:42:07;;;;;;;7.65;5.00;;;;;;;17.43;61.14;102273.63;4989485;28;104036;-52
2021/10/04 08:44:36;;;;;;;8.03;5.17;;;;;;;17.43;61.18;102273.63;4992034;28;102312;-53
2021/10/04 08:47:07;;;;;;;6.18;4.95;;;;;;;17.43;61.17;102271.69;4986172;28;102065;-52
2021/10/04 08:49:34;;;;;;;6.35;5.00;;;;;;;17.43;61.20;102268.94;4978737;28;102322;-52
2021/10/04 08:52:01;;;;;;;8.23;5.65;;;;;;;17.43;60.97;102268.13;4981087;28;103929;-52
2021/10/04 08:54:29;;;;;;;7.50;4.88;;;;;;;17.42;60.76;102253.53;4987801;28;102708;-52
2021/10/04 08:56:57;;;;;;;7.95;5.38;;;;;;;17.43;60.52;102259.84;4979767;28;102385;-52
2021/10/04 08:59:25;;;;;;;9.93;5.80;;;;;;;17.43;60.62;102259.84;4982798;28;102508;-54
2021/10/04 09:02:26;;;;;;;7.22;5.10;;;;;;;17.42;60.49;102253.53;4982296;28;104395;-52
2021/10/04 09:05:14;;;;;;;9.07;5.80;;;;;;;17.42;60.92;102259.03;4977490;28;102204;-52
2021/10/04 09:07:42;;;;;;;9.05;5.72;;;;;;;17.42;60.47;102253.53;4985702;28;102458;-52
2021/10/04 09:10:10;;;;;;;8.25;5.38;;;;;;;17.42;60.79;102245.28;4975989;28;102546;-52
2021/10/04 09:12:46;;;;;;;7.83;6.07;;;;;;;17.43;60.06;102248.84;4982495;28;104255;-53
2021/10/04 09:15:26;;;;;;;6.78;5.78;;;;;;;17.41;60.33;102249.13;4980421;28;102640;-52
2021/10/04 09:17:56;;;;;;;11.00;5.88;;;;;;;17.41;60.18;102248.28;4984293;28;102309;-52
2021/10/04 09:20:23;;;;;;;6.18;5.40;;;;;;;17.40;59.90;102250.22;4995934;28;102301;-52
2021/10/04 09:22:49;;;;;;;7.75;5.90;;;;;;;17.40;59.66;102243.91;4987547;28;105260;-52
2021/10/04 09:25:16;;;;;;;8.52;5.97;;;;;;;17.40;59.92;102252.97;4986174;28;104474;-53
2021/10/04 09:27:45;;;;;;;8.35;5.72;;;;;;;17.39;59.57;102251.34;4984794;28;102296;-53
2021/10/04 09:30:15;;;;;;;10.18;5.75;;;;;;;17.38;59.98;102246.94;4989151;28;102689;-52
2021/10/04 09:32:44;;;;;;;7.07;5.88;;;;;;;17.37;60.12;102242.53;4989795;28;103853;-52
2021/10/04 09:35:22;;;;;;;9.65;6.20;;;;;;;17.36;59.24;102243.63;4985389;28;102249;-52
2021/10/04 09:37:51;;;;;;;9.05;5.78;;;;;;;17.36;59.51;102246.38;4985671;28;103248;-53
2021/10/04 09:40:26;;;;;;;8.45;5.85;;;;;;;17.35;59.30;102239.25;4994385;28;102589;-52
2021/10/04 09:42:53;;;;;;;9.18;5.50;;;;;;;17.35;59.11;102235.69;4990883;28;103932;-52
2021/10/04 09:45:20;;;;;;;8.48;5.65;;;;;;;17.34;59.39;102234.81;4985288;28;102004;-53
2021/10/04 09:47:49;;;;;;;8.15;5.53;;;;;;;17.35;59.46;102232.94;4989751;28;103346;-52
2021/10/04 09:50:18;;;;;;;8.33;5.27;;;;;;;17.34;58.80;102228.50;4984721;28;102565;-52
2021/10/04 09:52:47;;;;;;;7.22;5.82;;;;;;;17.34;59.27;102229.31;4992623;28;104125;-52
2021/10/04 09:55:20;;;;;;;8.43;5.43;;;;;;;17.32;59.09;102226.03;4989663;28;102251;-52
2021/10/04 09:57:59;;;;;;;8.05;5.60;;;;;;;17.33;58.95;102218.59;4991494;28;102225;-52
2021/10/04 10:00:27;;;;;;;10.75;5.53;;;;;;;17.34;59.08;102228.50;4989323;28;102652;-52
2021/10/04 10:02:56;;;;;;;7.78;5.53;;;;;;;17.32;58.73;102226.03;4994958;28;104074;-52
2021/10/04 10:05:29;;;;;;;6.28;5.40;;;;;;;17.30;58.64;102218.06;4984838;28;102121;-53
2021/10/04 10:07:56;;;;;;;9.32;5.50;;;;;;;17.32;58.54;102215.03;4988393;28;102146;-52
2021/10/04 10:10:23;;;;;;;7.07;5.20;;;;;;;17.30;58.27;102218.06;4993070;28;102159;-53
2021/10/04 10:12:50;;;;;;;7.55;5.35;;;;;;;17.31;58.20;102216.16;4984490;28;104173;-52
2021/10/04 10:15:19;;;;;;;6.18;5.22;;;;;;;17.32;58.86;102206.78;4991081;28;102178;-52
2021/10/04 10:17:47;;;;;;;7.50;5.57;;;;;;;17.31;58.34;102213.41;4986733;28;103520;-52
2021/10/04 10:20:18;;;;;;;6.93;4.88;;;;;;;17.33;58.03;102211.19;4996717;28;102238;-52
2021/10/04 10:22:49;;;;;;;7.43;5.13;;;;;;;17.31;58.46;102202.41;4985988;28;103975;-53
2021/10/04 10:25:31;;;;;;;9.27;6.07;;;;;;;17.31;57.91;102202.41;4992819;28;103453;-52
2021/10/04 10:27:57;;;;;;;8.50;5.82;;;;;;;17.30;58.43;102207.03;4993949;28;102635;-52
2021/10/04 10:30:26;;;;;;;6.13;4.85;;;;;;;17.30;57.73;102209.78;4992558;28;103495;-53
2021/10/04 10:32:54;;;;;;;7.68;5.45;;;;;;;17.29;57.74;102205.41;4997048;28;103860;-52
2021/10/04 10:35:45;;;;;;;7.07;5.35;;;;;;;17.30;57.54;102200.72;4991410;28;102052;-53
2021/10/04 10:38:13;;;;;;;8.18;5.57;;;;;;;17.30;57.72;102206.22;4987087;28;102185;-53
2021/10/04 10:40:40;;;;;;;7.32;5.05;;;;;;;17.30;57.48;102201.53;4988208;28;102363;-52
2021/10/04 10:43:09;;;;;;;8.35;5.50;;;;;;;17.30;57.78;102192.47;4994900;28;104041;-53
2021/10/04 10:45:46;;;;;;;5.65;4.95;;;;;;;17.31;58.40;102194.13;4984222;28;102624;-52
2021/10/04 10:48:14;;;;;;;6.95;5.30;;;;;;;17.32;57.67;102193.03;4983938;28;102375;-53
2021/10/04 10:50:42;;;;;;;6.50;5.40;;;;;;;17.34;58.30;102189.97;4984331;28;102274;-53
2021/10/04 10:53:25;;;;;;;;;;;;;;;17.32;58.25;102182.03;4991582;28;103904;-52
2021/10/04 10:55:59;;;;;;;7.28;5.18;;;;;;;17.34;57.87;102181.72;4986917;28;102057;-53
2021/10/04 10:58:27;;;;;;;7.18;5.85;;;;;;;17.33;58.17;102183.66;4986006;28;102262;-53
2021/10/04 11:01:20;;;;;;;8.32;5.13;;;;;;;17.32;58.08;102175.69;4986610;28;102420;-52
2021/10/04 11:03:52;;;;;;;8.15;5.05;;;;;;;17.30;57.74;102179.53;4981177;28;103982;-52
2021/10/04 11:06:19;;;;;;;8.20;5.57;;;;;;;17.31;57.86;102177.63;4990516;28;102349;-52
2021/10/04 11:08:59;;;;;;;6.93;4.95;;;;;;;17.29;57.47;102177.88;4979475;28;102476;-52
2021/10/04 11:11:28;;;;;;;7.88;5.65;;;;;;;17.29;57.59;102169.63;4983594;28;102690;-52
2021/10/04 11:14:07;;;;;;;6.50;5.20;;;;;;;17.29;57.56;102177.88;4986979;28;104151;-52
2021/10/04 11:16:39;;;;;;;7.07;5.20;;;;;;;17.29;57.37;102172.38;4985577;28;102477;-52
2021/10/04 11:19:07;;;;;;;7.38;4.97;;;;;;;17.29;57.81;102172.38;4992431;28;102708;-53
2021/10/04 11:21:43;;;;;;;6.57;5.07;;;;;;;17.30;57.58;102162.19;4990530;28;104014;-52